sensor_id;sensor_type;location;lat;lon;timestamp;pressure;altitude;pressure_sealevel;temperature;humidity
63715;BME280;49858;48.956;9.076;2024-01-15T00:00:33;97756.44;;;-0.93;100.00
63715;BME280;49858;48.956;9.076;2024-01-15T00:03:01;97753.75;;;-0.93;100.00
63715;BME280;49858;48.956;9.076;2024-01-15T00:05:29;97747.38;;;-0.97;100.00
63715;BME280;49858;48.956;9.076;2024-01-15T00:07:57;97749.97;;;-0.69;100.00
63715;BME280;49858;48.956;9.076;2024-01-15T00:10:25;97752.00;;;-0.75;100.00
63715;BME280;49858;48.956;9.076;2024-01-15T00:12:54;97738.94;;;-0.37;100.00
63715;BME280;49858;48.956;9.076;2024-01-15T00:15:22;97739.28;;;-0.74;100.00
63715;BME280;49858;48.956;9.076;2024-01-15T00:17:50;97736.50;;;-0.38;100.00
63715;BME280;49858;48.956;9.076;2024-01-15T00:20:18;97736.16;;;-0.68;100.00
63715;BME280;49858;48.956;9.076;2024-01-15T00:22:46;97732.97;;;-0.70;100.00
63715;BME280;49858;48.956;9.076;2024-01-15T00:25:14;97730.38;;;-0.30;100.00
63715;BME280;49858;48.956;9.076;2024-01-15T00:27:42;97719.75;;;-0.27;100.00
63715;BME280;49858;48.956;9.076;2024-01-15T00:30:12;97726.41;;;-0.55;100.00
63715;BME280;49858;48.956;9.076;2024-01-15T00:32:40;97729.03;;;-0.41;100.00
63715;BME280;49858;48.956;9.076;2024-01-15T00:35:08;97716.59;;;-0.20;100.00
63715;BME280;49858;48.956;9.076;2024-01-15T00:37:37;97722.28;;;-0.53;100.00
63715;BME280;49858;48.956;9.076;2024-01-15T00:40:06;97726.63;;;-0.43;100.00
63715;BME280;49858;48.956;9.076;2024-01-15T00:42:35;97717.66;;;-0.30;100.00
63715;BME280;49858;48.956;9.076;2024-01-15T00:45:03;97717.41;;;-0.19;100.00
63715;BME280;49858;48.956;9.076;2024-01-15T00:47:33;97721.34;;;-0.48;100.00
63715;BME280;49858;48.956;9.076;2024-01-15T00:50:01;97725.13;;;-0.04;100.00
63715;BME280;49858;48.956;9.076;2024-01-15T00:52:29;97719.34;;;-0.11;100.00
63715;BME280;49858;48.956;9.076;2024-01-15T00:54:57;97722.66;;;-0.23;100.00
63715;BME280;49858;48.956;9.076;2024-01-15T00:57:25;97708.91;;;-0.04;100.00
63715;BME280;49858;48.956;9.076;2024-01-15T00:59:53;97723.56;;;-0.28;100.00
63715;BME280;49858;48.956;9.076;2024-01-15T01:02:21;97718.38;;;-0.46;100.00
63715;BME280;49858;48.956;9.076;2024-01-15T01:04:50;97708.09;;;-0.36;100.00
63715;BME280;49858;48.956;9.076;2024-01-15T01:07:18;97724.13;;;-0.62;100.00
63715;BME280;49858;48.956;9.076;2024-01-15T01:09:46;97719.72;;;-0.04;100.00
63715;BME280;49858;48.956;9.076;2024-01-15T01:12:14;97722.47;;;-0.27;100.00
63715;BME280;49858;48.956;9.076;2024-01-15T01:14:42;97717.19;;;-0.32;100.00
63715;BME280;49858;48.956;9.076;2024-01-15T01:17:10;97719.16;;;-0.23;100.00
63715;BME280;49858;48.956;9.076;2024-01-15T01:19:38;97712.78;;;0.12;100.00
63715;BME280;49858;48.956;9.076;2024-01-15T01:22:07;97714.44;;;-0.09;100.00
63715;BME280;49858;48.956;9.076;2024-01-15T01:24:35;97719.34;;;-0.11;100.00
63715;BME280;49858;48.956;9.076;2024-01-15T01:27:04;97720.53;;;-0.26;100.00
63715;BME280;49858;48.956;9.076;2024-01-15T01:29:32;97712.31;;;0.10;100.00
63715;BME280;49858;48.956;9.076;2024-01-15T01:31:59;97708.81;;;0.18;100.00
63715;BME280;49858;48.956;9.076;2024-01-15T01:34:27;97719.56;;;-0.30;100.00
63715;BME280;49858;48.956;9.076;2024-01-15T01:37:00;97724.47;;;-0.01;100.00
63715;BME280;49858;48.956;9.076;2024-01-15T01:39:29;97713.63;;;-0.10;100.00
63715;BME280;49858;48.956;9.076;2024-01-15T01:41:57;97724.75;;;-0.11;100.00
63715;BME280;49858;48.956;9.076;2024-01-15T01:44:25;97716.59;;;-0.20;100.00
63715;BME280;49858;48.956;9.076;2024-01-15T01:46:53;97690.13;;;-0.01;100.00
63715;BME280;49858;48.956;9.076;2024-01-15T01:49:23;97699.25;;;-0.28;100.00
63715;BME280;49858;48.956;9.076;2024-01-15T01:51:52;97703.69;;;0.08;100.00
63715;BME280;49858;48.956;9.076;2024-01-15T01:54:20;97714.50;;;0.08;100.00
63715;BME280;49858;48.956;9.076;2024-01-15T01:56:50;97708.84;;;0.27;100.00
63715;BME280;49858;48.956;9.076;2024-01-15T01:59:19;97708.34;;;0.16;100.00
63715;BME280;49858;48.956;9.076;2024-01-15T02:01:48;97710.69;;;0.09;100.00
63715;BME280;49858;48.956;9.076;2024-01-15T02:04:19;97711.50;;;0.58;100.00
63715;BME280;49858;48.956;9.076;2024-01-15T02:06:48;97718.59;;;0.37;100.00
63715;BME280;49858;48.956;9.076;2024-01-15T02:09:16;97712.69;;;0.26;100.00
63715;BME280;49858;48.956;9.076;2024-01-15T02:11:46;97702.94;;;0.16;100.00
63715;BME280;49858;48.956;9.076;2024-01-15T02:14:16;97714.97;;;0.50;100.00
63715;BME280;49858;48.956;9.076;2024-01-15T02:16:44;97701.53;;;0.28;100.00
63715;BME280;49858;48.956;9.076;2024-01-15T02:19:15;97703.19;;;0.46;100.00
63715;BME280;49858;48.956;9.076;2024-01-15T02:21:44;97698.41;;;0.43;100.00
63715;BME280;49858;48.956;9.076;2024-01-15T02:24:14;97698.59;;;0.64;100.00
63715;BME280;49858;48.956;9.076;2024-01-15T02:26:42;97697.84;;;0.23;100.00
63715;BME280;49858;48.956;9.076;2024-01-15T02:29:10;97699.97;;;0.35;100.00
63715;BME280;49858;48.956;9.076;2024-01-15T02:31:38;97698.66;;;0.15;100.00
63715;BME280;49858;48.956;9.076;2024-01-15T02:34:06;97699.25;;;0.12;100.00
63715;BME280;49858;48.956;9.076;2024-01-15T02:36:34;97698.38;;;0.34;100.00
63715;BME280;49858;48.956;9.076;2024-01-15T02:39:02;97688.88;;;0.54;100.00
63715;BME280;49858;48.956;9.076;2024-01-15T02:41:32;97692.34;;;0.46;100.00
63715;BME280;49858;48.956;9.076;2024-01-15T02:43:59;97690.91;;;0.40;100.00
63715;BME280;49858;48.956;9.076;2024-01-15T02:46:27;97692.66;;;0.36;100.00
63715;BME280;49858;48.956;9.076;2024-01-15T02:48:55;97691.69;;;0.32;100.00
63715;BME280;49858;48.956;9.076;2024-01-15T02:51:23;97693.66;;;0.09;100.00
63715;BME280;49858;48.956;9.076;2024-01-15T02:53:54;97693.75;;;0.26;100.00
63715;BME280;49858;48.956;9.076;2024-01-15T02:56:22;97692.31;;;0.20;100.00
63715;BME280;49858;48.956;9.076;2024-01-15T02:58:51;97687.47;;;0.08;100.00
63715;BME280;49858;48.956;9.076;2024-01-15T03:01:19;97687.53;;;0.25;100.00
63715;BME280;49858;48.956;9.076;2024-01-15T03:03:47;97676.94;;;0.38;100.00
63715;BME280;49858;48.956;9.076;2024-01-15T03:06:15;97688.53;;;0.38;100.00
63715;BME280;49858;48.956;9.076;2024-01-15T03:08:43;97691.41;;;0.33;100.00
63715;BME280;49858;48.956;9.076;2024-01-15T03:11:11;97688.00;;;0.28;100.00
63715;BME280;49858;48.956;9.076;2024-01-15T03:13:38;97679.63;;;0.38;100.00
63715;BME280;49858;48.956;9.076;2024-01-15T03:16:08;97683.72;;;0.27;100.00
63715;BME280;49858;48.956;9.076;2024-01-15T03:18:35;97682.03;;;0.48;100.00
63715;BME280;49858;48.956;9.076;2024-01-15T03:21:04;97680.41;;;0.30;100.00
63715;BME280;49858;48.956;9.076;2024-01-15T03:23:32;97685.47;;;0.31;100.00
63715;BME280;49858;48.956;9.076;2024-01-15T03:26:00;97686.91;;;0.29;100.00
63715;BME280;49858;48.956;9.076;2024-01-15T03:28:28;97686.53;;;0.79;100.00
63715;BME280;49858;48.956;9.076;2024-01-15T03:30:57;97673.41;;;0.37;100.00
63715;BME280;49858;48.956;9.076;2024-01-15T03:33:26;97680.56;;;0.42;100.00
63715;BME280;49858;48.956;9.076;2024-01-15T03:35:54;97681.13;;;0.61;100.00
63715;BME280;49858;48.956;9.076;2024-01-15T03:38:23;97688.53;;;0.47;100.00
63715;BME280;49858;48.956;9.076;2024-01-15T03:40:51;97681.28;;;0.82;100.00
63715;BME280;49858;48.956;9.076;2024-01-15T03:43:19;97678.84;;;0.55;100.00
63715;BME280;49858;48.956;9.076;2024-01-15T03:45:47;97678.56;;;0.73;100.00
63715;BME280;49858;48.956;9.076;2024-01-15T03:48:15;97678.34;;;0.35;100.00
63715;BME280;49858;48.956;9.076;2024-01-15T03:50:44;97674.44;;;1.28;100.00
63715;BME280;49858;48.956;9.076;2024-01-15T03:53:12;97673.44;;;0.55;100.00
63715;BME280;49858;48.956;9.076;2024-01-15T03:55:40;97670.31;;;1.05;100.00
63715;BME280;49858;48.956;9.076;2024-01-15T03:58:08;97655.66;;;0.71;100.00
63715;BME280;49858;48.956;9.076;2024-01-15T04:00:36;97658.19;;;1.11;100.00
63715;BME280;49858;48.956;9.076;2024-01-15T04:03:05;97651.66;;;0.68;100.00
63715;BME280;49858;48.956;9.076;2024-01-15T04:05:33;97650.84;;;1.28;100.00
63715;BME280;49858;48.956;9.076;2024-01-15T04:08:02;97641.16;;;0.93;100.00
63715;BME280;49858;48.956;9.076;2024-01-15T04:10:30;97637.31;;;1.11;100.00
63715;BME280;49858;48.956;9.076;2024-01-15T04:12:58;97641.94;;;0.85;100.00
63715;BME280;49858;48.956;9.076;2024-01-15T04:15:28;97639.06;;;0.98;100.00
63715;BME280;49858;48.956;9.076;2024-01-15T04:17:59;97639.56;;;0.74;100.00
63715;BME280;49858;48.956;9.076;2024-01-15T04:20:27;97628.69;;;1.26;100.00
63715;BME280;49858;48.956;9.076;2024-01-15T04:22:55;97628.06;;;1.21;100.00
63715;BME280;49858;48.956;9.076;2024-01-15T04:25:24;97629.03;;;1.16;100.00
63715;BME280;49858;48.956;9.076;2024-01-15T04:27:52;97620.44;;;1.23;100.00
63715;BME280;49858;48.956;9.076;2024-01-15T04:30:20;97633.13;;;1.40;100.00
63715;BME280;49858;48.956;9.076;2024-01-15T04:32:48;97629.22;;;1.75;100.00
63715;BME280;49858;48.956;9.076;2024-01-15T04:35:16;97633.47;;;1.38;100.00
63715;BME280;49858;48.956;9.076;2024-01-15T04:37:44;97630.47;;;1.14;100.00
63715;BME280;49858;48.956;9.076;2024-01-15T04:40:12;97627.28;;;1.12;100.00
63715;BME280;49858;48.956;9.076;2024-01-15T04:42:43;97637.81;;;0.79;100.00
63715;BME280;49858;48.956;9.076;2024-01-15T04:45:12;97647.22;;;0.81;100.00
63715;BME280;49858;48.956;9.076;2024-01-15T04:47:40;97636.53;;;0.76;100.00
63715;BME280;49858;48.956;9.076;2024-01-15T04:50:09;97628.09;;;0.86;100.00
63715;BME280;49858;48.956;9.076;2024-01-15T04:52:37;97627.94;;;0.74;100.00
63715;BME280;49858;48.956;9.076;2024-01-15T04:55:05;97624.38;;;1.34;100.00
63715;BME280;49858;48.956;9.076;2024-01-15T04:57:33;97621.03;;;1.37;100.00
63715;BME280;49858;48.956;9.076;2024-01-15T05:00:02;97631.78;;;0.99;100.00
63715;BME280;49858;48.956;9.076;2024-01-15T05:02:34;97636.16;;;1.47;100.00
63715;BME280;49858;48.956;9.076;2024-01-15T05:05:02;97618.75;;;1.57;100.00
63715;BME280;49858;48.956;9.076;2024-01-15T05:07:30;97620.50;;;1.52;100.00
63715;BME280;49858;48.956;9.076;2024-01-15T05:09:58;97615.47;;;1.25;100.00
63715;BME280;49858;48.956;9.076;2024-01-15T05:12:26;97610.25;;;1.02;100.00
63715;BME280;49858;48.956;9.076;2024-01-15T05:14:54;97602.38;;;1.27;100.00
63715;BME280;49858;48.956;9.076;2024-01-15T05:17:23;97607.19;;;1.21;100.00
63715;BME280;49858;48.956;9.076;2024-01-15T05:19:51;97608.78;;;1.22;100.00
63715;BME280;49858;48.956;9.076;2024-01-15T05:22:19;97608.19;;;1.64;100.00
63715;BME280;49858;48.956;9.076;2024-01-15T05:24:47;97616.84;;;1.57;100.00
63715;BME280;49858;48.956;9.076;2024-01-15T05:27:15;97606.91;;;1.14;100.00
63715;BME280;49858;48.956;9.076;2024-01-15T05:29:43;97609.44;;;1.19;100.00
63715;BME280;49858;48.956;9.076;2024-01-15T05:32:11;97604.47;;;1.21;100.00
63715;BME280;49858;48.956;9.076;2024-01-15T05:34:40;97612.66;;;0.95;100.00
63715;BME280;49858;48.956;9.076;2024-01-15T05:37:10;97602.44;;;1.01;100.00
63715;BME280;49858;48.956;9.076;2024-01-15T05:39:38;97606.72;;;1.11;100.00
63715;BME280;49858;48.956;9.076;2024-01-15T05:42:06;97607.53;;;1.11;100.00
63715;BME280;49858;48.956;9.076;2024-01-15T05:44:34;97607.06;;;0.92;100.00
63715;BME280;49858;48.956;9.076;2024-01-15T05:47:02;97594.00;;;0.94;100.00
63715;BME280;49858;48.956;9.076;2024-01-15T05:49:30;97598.72;;;1.32;100.00
63715;BME280;49858;48.956;9.076;2024-01-15T05:52:00;97600.00;;;1.25;100.00
63715;BME280;49858;48.956;9.076;2024-01-15T05:54:27;97597.28;;;1.43;100.00
63715;BME280;49858;48.956;9.076;2024-01-15T05:56:55;97588.81;;;1.36;100.00
63715;BME280;49858;48.956;9.076;2024-01-15T05:59:24;97586.69;;;1.59;100.00
63715;BME280;49858;48.956;9.076;2024-01-15T06:01:52;97577.50;;;1.42;100.00
63715;BME280;49858;48.956;9.076;2024-01-15T06:04:20;97577.66;;;1.46;100.00
63715;BME280;49858;48.956;9.076;2024-01-15T06:06:48;97571.50;;;1.28;100.00
63715;BME280;49858;48.956;9.076;2024-01-15T06:09:19;97577.66;;;1.46;100.00
63715;BME280;49858;48.956;9.076;2024-01-15T06:11:47;97582.00;;;1.76;100.00
63715;BME280;49858;48.956;9.076;2024-01-15T06:14:15;97581.19;;;1.76;100.00
63715;BME280;49858;48.956;9.076;2024-01-15T06:16:43;97580.41;;;1.75;100.00
63715;BME280;49858;48.956;9.076;2024-01-15T06:19:11;97580.28;;;1.63;100.00
63715;BME280;49858;48.956;9.076;2024-01-15T06:21:39;97585.22;;;1.70;100.00
63715;BME280;49858;48.956;9.076;2024-01-15T06:24:07;97586.25;;;1.86;100.00
63715;BME280;49858;48.956;9.076;2024-01-15T06:26:37;97577.88;;;1.70;100.00
63715;BME280;49858;48.956;9.076;2024-01-15T06:29:06;97587.88;;;2.17;100.00
63715;BME280;49858;48.956;9.076;2024-01-15T06:31:34;97583.75;;;2.94;100.00
63715;BME280;49858;48.956;9.076;2024-01-15T06:34:02;97565.44;;;3.37;100.00
63715;BME280;49858;48.956;9.076;2024-01-15T06:36:31;97576.94;;;3.79;100.00
63715;BME280;49858;48.956;9.076;2024-01-15T06:38:59;97579.78;;;3.95;100.00
63715;BME280;49858;48.956;9.076;2024-01-15T06:41:27;97570.25;;;3.76;100.00
63715;BME280;49858;48.956;9.076;2024-01-15T06:43:56;97573.72;;;3.52;100.00
63715;BME280;49858;48.956;9.076;2024-01-15T06:46:24;97570.09;;;3.03;100.00
63715;BME280;49858;48.956;9.076;2024-01-15T06:48:51;97573.50;;;2.58;100.00
63715;BME280;49858;48.956;9.076;2024-01-15T06:51:19;97573.63;;;2.20;100.00
63715;BME280;49858;48.956;9.076;2024-01-15T06:53:47;97570.59;;;2.21;100.00
63715;BME280;49858;48.956;9.076;2024-01-15T06:56:18;97571.88;;;1.94;100.00
63715;BME280;49858;48.956;9.076;2024-01-15T06:58:46;97573.56;;;2.28;100.00
63715;BME280;49858;48.956;9.076;2024-01-15T07:01:15;97569.47;;;2.22;100.00
63715;BME280;49858;48.956;9.076;2024-01-15T07:03:43;97557.19;;;2.16;100.00
63715;BME280;49858;48.956;9.076;2024-01-15T07:06:11;97561.88;;;2.37;100.00
63715;BME280;49858;48.956;9.076;2024-01-15T07:08:39;97570.34;;;2.56;100.00
63715;BME280;49858;48.956;9.076;2024-01-15T07:11:07;97563.56;;;2.83;100.00
63715;BME280;49858;48.956;9.076;2024-01-15T07:13:36;97567.38;;;3.03;100.00
63715;BME280;49858;48.956;9.076;2024-01-15T07:16:04;97559.41;;;2.65;100.00
63715;BME280;49858;48.956;9.076;2024-01-15T07:18:33;97569.72;;;2.29;100.00
63715;BME280;49858;48.956;9.076;2024-01-15T07:21:04;97567.69;;;1.67;100.00
63715;BME280;49858;48.956;9.076;2024-01-15T07:23:32;97565.81;;;2.39;100.00
63715;BME280;49858;48.956;9.076;2024-01-15T07:25:59;97571.16;;;2.06;100.00
63715;BME280;49858;48.956;9.076;2024-01-15T07:28:29;97565.97;;;3.18;100.00
63715;BME280;49858;48.956;9.076;2024-01-15T07:30:57;97564.28;;;3.25;100.00
63715;BME280;49858;48.956;9.076;2024-01-15T07:33:25;97568.25;;;4.50;100.00
63715;BME280;49858;48.956;9.076;2024-01-15T07:35:54;97568.88;;;3.95;100.00
63715;BME280;49858;48.956;9.076;2024-01-15T07:38:23;97575.19;;;3.38;100.00
63715;BME280;49858;48.956;9.076;2024-01-15T07:40:51;97574.03;;;3.39;100.00
63715;BME280;49858;48.956;9.076;2024-01-15T07:43:20;97580.19;;;3.15;100.00
63715;BME280;49858;48.956;9.076;2024-01-15T07:45:49;97575.22;;;4.23;100.00
63715;BME280;49858;48.956;9.076;2024-01-15T07:48:17;97580.69;;;3.99;100.00
63715;BME280;49858;48.956;9.076;2024-01-15T07:50:45;97581.41;;;5.01;100.00
63715;BME280;49858;48.956;9.076;2024-01-15T07:53:14;97582.47;;;5.12;100.00
63715;BME280;49858;48.956;9.076;2024-01-15T07:55:42;97574.75;;;5.14;100.00
63715;BME280;49858;48.956;9.076;2024-01-15T07:58:12;97586.84;;;5.29;100.00
63715;BME280;49858;48.956;9.076;2024-01-15T08:00:42;97585.53;;;5.38;100.00
63715;BME280;49858;48.956;9.076;2024-01-15T08:03:11;97586.34;;;4.30;100.00
63715;BME280;49858;48.956;9.076;2024-01-15T08:05:40;97591.53;;;3.62;100.00
63715;BME280;49858;48.956;9.076;2024-01-15T08:08:07;97587.16;;;4.06;100.00
63715;BME280;49858;48.956;9.076;2024-01-15T08:10:37;97586.09;;;4.23;100.00
63715;BME280;49858;48.956;9.076;2024-01-15T08:13:05;97593.72;;;3.23;100.00
63715;BME280;49858;48.956;9.076;2024-01-15T08:15:34;97585.41;;;2.87;100.00
63715;BME280;49858;48.956;9.076;2024-01-15T08:18:02;97591.88;;;2.61;100.00
63715;BME280;49858;48.956;9.076;2024-01-15T08:20:30;97583.69;;;2.82;100.00
63715;BME280;49858;48.956;9.076;2024-01-15T08:22:58;97585.81;;;2.35;100.00
63715;BME280;49858;48.956;9.076;2024-01-15T08:25:26;97585.78;;;2.14;100.00
63715;BME280;49858;48.956;9.076;2024-01-15T08:27:55;97587.72;;;2.34;100.00
63715;BME280;49858;48.956;9.076;2024-01-15T08:30:24;97585.34;;;2.33;100.00
63715;BME280;49858;48.956;9.076;2024-01-15T08:32:54;97584.09;;;2.30;100.00
63715;BME280;49858;48.956;9.076;2024-01-15T08:35:26;97582.28;;;2.13;100.00
63715;BME280;49858;48.956;9.076;2024-01-15T08:37:53;97579.56;;;2.13;100.00
63715;BME280;49858;48.956;9.076;2024-01-15T08:40:22;97583.31;;;2.50;100.00
63715;BME280;49858;48.956;9.076;2024-01-15T08:42:50;97586.50;;;2.32;100.00
63715;BME280;49858;48.956;9.076;2024-01-15T08:45:19;97586.50;;;2.32;100.00
63715;BME280;49858;48.956;9.076;2024-01-15T08:47:48;97578.16;;;2.78;100.00
63715;BME280;49858;48.956;9.076;2024-01-15T08:50:16;97584.03;;;2.39;100.00
63715;BME280;49858;48.956;9.076;2024-01-15T08:52:44;97580.88;;;2.37;100.00
63715;BME280;49858;48.956;9.076;2024-01-15T08:55:12;97578.81;;;2.75;100.00
63715;BME280;49858;48.956;9.076;2024-01-15T08:57:40;97582.66;;;2.33;100.00
63715;BME280;49858;48.956;9.076;2024-01-15T09:00:09;97583.50;;;2.24;100.00
63715;BME280;49858;48.956;9.076;2024-01-15T09:02:39;97579.22;;;2.65;100.00
63715;BME280;49858;48.956;9.076;2024-01-15T09:05:07;97578.94;;;2.79;100.00
63715;BME280;49858;48.956;9.076;2024-01-15T09:07:35;97579.28;;;2.36;100.00
63715;BME280;49858;48.956;9.076;2024-01-15T09:10:05;97578.81;;;2.34;100.00
63715;BME280;49858;48.956;9.076;2024-01-15T09:12:35;97570.22;;;2.32;100.00
63715;BME280;49858;48.956;9.076;2024-01-15T09:15:04;97569.13;;;2.87;100.00
63715;BME280;49858;48.956;9.076;2024-01-15T09:17:32;97562.69;;;2.91;100.00
63715;BME280;49858;48.956;9.076;2024-01-15T09:20:01;97558.88;;;3.04;100.00
63715;BME280;49858;48.956;9.076;2024-01-15T09:22:31;97558.22;;;2.53;100.00
63715;BME280;49858;48.956;9.076;2024-01-15T09:24:59;97560.44;;;3.26;100.00
63715;BME280;49858;48.956;9.076;2024-01-15T09:27:27;97554.25;;;3.05;100.00
63715;BME280;49858;48.956;9.076;2024-01-15T09:29:55;97558.56;;;2.52;100.00
63715;BME280;49858;48.956;9.076;2024-01-15T09:32:23;97562.06;;;2.73;100.00
63715;BME280;49858;48.956;9.076;2024-01-15T09:34:51;97562.53;;;2.34;100.00
63715;BME280;49858;48.956;9.076;2024-01-15T09:37:20;97552.47;;;2.34;100.00
63715;BME280;49858;48.956;9.076;2024-01-15T09:40:08;97560.00;;;2.28;100.00
63715;BME280;49858;48.956;9.076;2024-01-15T09:42:41;97560.81;;;2.50;100.00
63715;BME280;49858;48.956;9.076;2024-01-15T09:45:09;97568.53;;;2.18;100.00
63715;BME280;49858;48.956;9.076;2024-01-15T09:47:38;97558.72;;;2.89;100.00
63715;BME280;49858;48.956;9.076;2024-01-15T09:50:11;97549.28;;;2.32;100.00
63715;BME280;49858;48.956;9.076;2024-01-15T09:52:40;97538.31;;;2.49;100.00
63715;BME280;49858;48.956;9.076;2024-01-15T09:55:09;97542.84;;;2.78;100.00
63715;BME280;49858;48.956;9.076;2024-01-15T09:57:39;97528.22;;;2.71;100.00
63715;BME280;49858;48.956;9.076;2024-01-15T10:00:07;97534.53;;;2.42;100.00
63715;BME280;49858;48.956;9.076;2024-01-15T10:02:38;97526.50;;;2.66;100.00
63715;BME280;49858;48.956;9.076;2024-01-15T10:05:07;97527.44;;;2.70;100.00
63715;BME280;49858;48.956;9.076;2024-01-15T10:07:37;97526.09;;;2.76;100.00
63715;BME280;49858;48.956;9.076;2024-01-15T10:10:11;97523.13;;;2.69;100.00
63715;BME280;49858;48.956;9.076;2024-01-15T10:12:42;97528.50;;;2.57;100.00
63715;BME280;49858;48.956;9.076;2024-01-15T10:15:11;97527.16;;;2.63;100.00
63715;BME280;49858;48.956;9.076;2024-01-15T10:17:40;97515.69;;;2.78;100.00
63715;BME280;49858;48.956;9.076;2024-01-15T10:20:09;97508.53;;;3.07;100.00
63715;BME280;49858;48.956;9.076;2024-01-15T10:22:40;97506.00;;;2.90;100.00
63715;BME280;49858;48.956;9.076;2024-01-15T10:25:12;97507.84;;;3.10;100.00
63715;BME280;49858;48.956;9.076;2024-01-15T10:27:40;97502.78;;;2.75;100.00
63715;BME280;49858;48.956;9.076;2024-01-15T10:30:09;97507.44;;;2.54;100.00
63715;BME280;49858;48.956;9.076;2024-01-15T10:32:37;97508.91;;;2.85;100.00
63715;BME280;49858;48.956;9.076;2024-01-15T10:35:07;97494.13;;;2.94;100.00
63715;BME280;49858;48.956;9.076;2024-01-15T10:37:35;97487.72;;;3.23;100.00
63715;BME280;49858;48.956;9.076;2024-01-15T10:40:04;97494.69;;;2.88;100.00
63715;BME280;49858;48.956;9.076;2024-01-15T10:42:34;97491.31;;;3.15;100.00
63715;BME280;49858;48.956;9.076;2024-01-15T10:45:03;97489.00;;;2.80;100.00
63715;BME280;49858;48.956;9.076;2024-01-15T10:47:33;97502.28;;;2.19;100.00
63715;BME280;49858;48.956;9.076;2024-01-15T10:50:05;97637.00;;;2.45;100.00
63715;BME280;49858;48.956;9.076;2024-01-15T10:52:34;97644.31;;;2.95;100.00
63715;BME280;49858;48.956;9.076;2024-01-15T10:55:02;97633.59;;;2.27;100.00
63715;BME280;49858;48.956;9.076;2024-01-15T10:57:40;97613.06;;;2.17;100.00
63715;BME280;49858;48.956;9.076;2024-01-15T11:00:09;97586.13;;;2.12;100.00
63715;BME280;49858;48.956;9.076;2024-01-15T11:02:42;97564.78;;;2.32;100.00
63715;BME280;49858;48.956;9.076;2024-01-15T11:05:11;97547.66;;;1.89;100.00
63715;BME280;49858;48.956;9.076;2024-01-15T11:07:39;97541.22;;;1.64;100.00
63715;BME280;49858;48.956;9.076;2024-01-15T11:10:38;97539.88;;;1.41;100.00
63715;BME280;49858;48.956;9.076;2024-01-15T11:13:09;97664.03;;;1.56;100.00
63715;BME280;49858;48.956;9.076;2024-01-15T11:15:57;97631.75;;;1.81;100.00
63715;BME280;49858;48.956;9.076;2024-01-15T11:18:27;97610.81;;;2.19;100.00
63715;BME280;49858;48.956;9.076;2024-01-15T11:21:21;97579.03;;;1.99;100.00
63715;BME280;49858;48.956;9.076;2024-01-15T11:23:51;97560.31;;;1.76;100.00
63715;BME280;49858;48.956;9.076;2024-01-15T11:26:28;97546.69;;;1.56;100.00
63715;BME280;49858;48.956;9.076;2024-01-15T11:29:00;97536.34;;;1.78;100.00
63715;BME280;49858;48.956;9.076;2024-01-15T11:31:56;97532.63;;;1.92;100.00
63715;BME280;49858;48.956;9.076;2024-01-15T11:34:18;97524.44;;;2.00;100.00
63715;BME280;49858;48.956;9.076;2024-01-15T11:37:01;97519.59;;;2.06;100.00
63715;BME280;49858;48.956;9.076;2024-01-15T11:39:39;97520.09;;;2.08;100.00
63715;BME280;49858;48.956;9.076;2024-01-15T11:42:10;97520.56;;;1.81;100.00
63715;BME280;49858;48.956;9.076;2024-01-15T11:44:40;97524.59;;;2.04;100.00
63715;BME280;49858;48.956;9.076;2024-01-15T11:47:09;97511.81;;;2.25;100.00
63715;BME280;49858;48.956;9.076;2024-01-15T11:49:59;97529.28;;;2.16;100.00
63715;BME280;49858;48.956;9.076;2024-01-15T11:52:32;97522.22;;;2.23;100.00
63715;BME280;49858;48.956;9.076;2024-01-15T11:55:06;97533.09;;;1.64;100.00
63715;BME280;49858;48.956;9.076;2024-01-15T11:57:41;97530.75;;;2.34;100.00
63715;BME280;49858;48.956;9.076;2024-01-15T12:00:12;97522.53;;;2.43;100.00
63715;BME280;49858;48.956;9.076;2024-01-15T12:02:41;97528.69;;;2.10;100.00
63715;BME280;49858;48.956;9.076;2024-01-15T12:05:09;97518.47;;;1.86;100.00
63715;BME280;49858;48.956;9.076;2024-01-15T12:07:39;97520.47;;;1.68;100.00
63715;BME280;49858;48.956;9.076;2024-01-15T12:10:11;97521.81;;;1.53;100.00
63715;BME280;49858;48.956;9.076;2024-01-15T12:12:50;97524.22;;;1.85;100.00
63715;BME280;49858;48.956;9.076;2024-01-15T12:15:22;97526.63;;;1.77;100.00
63715;BME280;49858;48.956;9.076;2024-01-15T12:17:50;97532.91;;;1.99;100.00
63715;BME280;49858;48.956;9.076;2024-01-15T12:20:18;97532.47;;;2.18;100.00
63715;BME280;49858;48.956;9.076;2024-01-15T12:22:46;97529.72;;;1.67;100.00
63715;BME280;49858;48.956;9.076;2024-01-15T12:25:27;97525.41;;;1.75;100.00
63715;BME280;49858;48.956;9.076;2024-01-15T12:27:55;97585.88;;;1.67;100.00
63715;BME280;49858;48.956;9.076;2024-01-15T12:30:25;97598.22;;;1.47;100.00
63715;BME280;49858;48.956;9.076;2024-01-15T12:32:54;97599.09;;;1.60;100.00
63715;BME280;49858;48.956;9.076;2024-01-15T12:35:24;97588.25;;;1.60;100.00
63715;BME280;49858;48.956;9.076;2024-01-15T12:37:54;97585.81;;;1.37;100.00
63715;BME280;49858;48.956;9.076;2024-01-15T12:40:22;97578.56;;;1.59;100.00
63715;BME280;49858;48.956;9.076;2024-01-15T12:42:51;97561.09;;;1.77;100.00
63715;BME280;49858;48.956;9.076;2024-01-15T12:45:19;97556.66;;;1.34;100.00
63715;BME280;49858;48.956;9.076;2024-01-15T12:47:48;97565.94;;;1.63;100.00
63715;BME280;49858;48.956;9.076;2024-01-15T12:50:17;97560.88;;;1.52;100.00
63715;BME280;49858;48.956;9.076;2024-01-15T12:52:47;97558.38;;;1.77;100.00
63715;BME280;49858;48.956;9.076;2024-01-15T12:55:15;97552.31;;;1.42;100.00
63715;BME280;49858;48.956;9.076;2024-01-15T12:57:43;97548.56;;;2.23;100.00
63715;BME280;49858;48.956;9.076;2024-01-15T13:00:13;97552.84;;;2.03;100.00
63715;BME280;49858;48.956;9.076;2024-01-15T13:02:42;97536.00;;;1.89;100.00
63715;BME280;49858;48.956;9.076;2024-01-15T13:05:12;97531.91;;;1.74;100.00
63715;BME280;49858;48.956;9.076;2024-01-15T13:07:42;97591.47;;;1.62;100.00
63715;BME280;49858;48.956;9.076;2024-01-15T13:10:11;97579.44;;;2.10;100.00